sensor_id;sensor_type;location;lat;lon;timestamp;temperature;humidity
40249;DHT22;25969;49.970;11.062;2023-07-30T04:09:36;17.50;99.90
40249;DHT22;25969;49.970;11.062;2023-07-30T04:19:37;17.50;99.90
40249;DHT22;25969;49.970;11.062;2023-07-30T04:29:38;17.50;99.90
40249;DHT22;25969;49.970;11.062;2023-07-30T04:39:39;17.60;99.90
40249;DHT22;25969;49.970;11.062;2023-07-30T04:49:41;17.60;99.90
40249;DHT22;25969;49.970;11.062;2023-07-30T04:59:41;17.50;99.90
40249;DHT22;25969;49.970;11.062;2023-07-30T05:09:42;17.50;99.90
40249;DHT22;25969;49.970;11.062;2023-07-30T05:19:43;17.50;99.90
40249;DHT22;25969;49.970;11.062;2023-07-30T05:29:43;17.50;99.90
40249;DHT22;25969;49.970;11.062;2023-07-30T05:39:44;17.70;99.90
40249;DHT22;25969;49.970;11.062;2023-07-30T05:49:45;17.70;99.90
40249;DHT22;25969;49.970;11.062;2023-07-30T05:59:46;18.00;99.90
40249;DHT22;25969;49.970;11.062;2023-07-30T06:09:47;18.20;99.90
40249;DHT22;25969;49.970;11.062;2023-07-30T06:19:48;18.40;99.90
40249;DHT22;25969;49.970;11.062;2023-07-30T06:29:48;18.50;99.90
40249;DHT22;25969;49.970;11.062;2023-07-30T06:39:49;18.90;99.90
40249;DHT22;25969;49.970;11.062;2023-07-30T06:49:51;19.20;99.90
40249;DHT22;25969;49.970;11.062;2023-07-30T06:59:51;20.30;99.90
40249;DHT22;25969;49.970;11.062;2023-07-30T07:09:52;20.80;99.90
40249;DHT22;25969;49.970;11.062;2023-07-30T07:19:53;21.10;99.90
40249;DHT22;25969;49.970;11.062;2023-07-30T07:29:54;21.60;99.90
40249;DHT22;25969;49.970;11.062;2023-07-30T07:39:54;22.50;99.90
40249;DHT22;25969;49.970;11.062;2023-07-30T07:49:55;23.00;99.90
40249;DHT22;25969;49.970;11.062;2023-07-30T07:59:56;22.80;97.70
40249;DHT22;25969;49.970;11.062;2023-07-30T08:09:57;22.50;99.30
40249;DHT22;25969;49.970;11.062;2023-07-30T08:19:58;23.10;96.90
40249;DHT22;25969;49.970;11.062;2023-07-30T08:29:58;24.30;92.80
40249;DHT22;25969;49.970;11.062;2023-07-30T08:39:59;23.70;90.40
40249;DHT22;25969;49.970;11.062;2023-07-30T08:50:00;25.30;81.70
40249;DHT22;25969;49.970;11.062;2023-07-30T09:00:06;24.20;80.60
40249;DHT22;25969;49.970;11.062;2023-07-30T09:10:12;24.50;83.80
40249;DHT22;25969;49.970;11.062;2023-07-30T09:20:13;24.40;84.60
40249;DHT22;25969;49.970;11.062;2023-07-30T09:30:13;25.50;75.60
40249;DHT22;25969;49.970;11.062;2023-07-30T09:40:15;25.50;71.10
40249;DHT22;25969;49.970;11.062;2023-07-30T09:50:17;26.10;69.20
40249;DHT22;25969;49.970;11.062;2023-07-30T10:00:17;27.50;63.50
40249;DHT22;25969;49.970;11.062;2023-07-30T10:10:18;26.40;67.30
40249;DHT22;25969;49.970;11.062;2023-07-30T10:20:24;23.80;78.90
40249;DHT22;25969;49.970;11.062;2023-07-30T10:30:31;24.20;77.90
40249;DHT22;25969;49.970;11.062;2023-07-30T10:40:32;24.40;75.50
40249;DHT22;25969;49.970;11.062;2023-07-30T10:50:37;24.50;73.00
40249;DHT22;25969;49.970;11.062;2023-07-30T11:00:38;24.50;73.30
40249;DHT22;25969;49.970;11.062;2023-07-30T11:10:45;23.20;76.30
40249;DHT22;25969;49.970;11.062;2023-07-30T11:20:47;23.60;73.60
40249;DHT22;25969;49.970;11.062;2023-07-30T11:30:51;22.90;75.10
40249;DHT22;25969;49.970;11.062;2023-07-30T11:40:53;21.80;90.90
40249;DHT22;25969;49.970;11.062;2023-07-30T11:50:54;22.90;87.70
40249;DHT22;25969;49.970;11.062;2023-07-30T12:00:55;22.60;84.20
40249;DHT22;25969;49.970;11.062;2023-07-30T12:10:55;22.40;86.60
40249;DHT22;25969;49.970;11.062;2023-07-30T12:20:57;23.20;83.00
40249;DHT22;25969;49.970;11.062;2023-07-30T12:30:58;25.10;77.50
40249;DHT22;25969;49.970;11.062;2023-07-30T12:40:59;29.80;61.10
40249;DHT22;25969;49.970;11.062;2023-07-30T12:51:00;29.70;59.60
40249;DHT22;25969;49.970;11.062;2023-07-30T13:01:03;28.20;58.10
40249;DHT22;25969;49.970;11.062;2023-07-30T13:11:04;23.60;72.70
40249;DHT22;25969;49.970;11.062;2023-07-30T13:21:04;20.60;92.10
40249;DHT22;25969;49.970;11.062;2023-07-30T13:31:05;20.80;94.50
40249;DHT22;25969;49.970;11.062;2023-07-30T13:41:06;20.60;93.60
40249;DHT22;25969;49.970;11.062;2023-07-30T13:51:07;22.00;89.40
40249;DHT22;25969;49.970;11.062;2023-07-30T14:01:08;21.90;88.90
40249;DHT22;25969;49.970;11.062;2023-07-30T14:11:09;21.60;86.00
40249;DHT22;25969;49.970;11.062;2023-07-30T14:21:10;21.90;80.20
40249;DHT22;25969;49.970;11.062;2023-07-30T14:31:12;23.20;77.00
40249;DHT22;25969;49.970;11.062;2023-07-30T14:41:15;22.00;77.90
40249;DHT22;25969;49.970;11.062;2023-07-30T14:51:16;22.10;78.00
40249;DHT22;25969;49.970;11.062;2023-07-30T15:01:17;22.30;78.90
40249;DHT22;25969;49.970;11.062;2023-07-30T15:11:18;21.20;80.70
40249;DHT22;25969;49.970;11.062;2023-07-30T15:21:18;20.80;81.50
40249;DHT22;25969;49.970;11.062;2023-07-30T15:31:19;22.40;73.90
40249;DHT22;25969;49.970;11.062;2023-07-30T15:41:21;21.60;73.30
40249;DHT22;25969;49.970;11.062;2023-07-30T15:51:21;23.90;62.50
40249;DHT22;25969;49.970;11.062;2023-07-30T16:01:22;23.00;59.20
40249;DHT22;25969;49.970;11.062;2023-07-30T16:11:23;22.90;59.60
40249;DHT22;25969;49.970;11.062;2023-07-30T16:21:23;22.70;57.80
40249;DHT22;25969;49.970;11.062;2023-07-30T16:31:24;21.50;59.20
40249;DHT22;25969;49.970;11.062;2023-07-30T16:41:25;22.70;57.70
40249;DHT22;25969;49.970;11.062;2023-07-30T16:51:26;22.60;56.40
40249;DHT22;25969;49.970;11.062;2023-07-30T17:01:27;22.40;58.80
40249;DHT22;25969;49.970;11.062;2023-07-30T17:11:28;21.40;57.20
40249;DHT22;25969;49.970;11.062;2023-07-30T17:21:28;21.70;57.90
40249;DHT22;25969;49.970;11.062;2023-07-30T17:31:29;21.80;58.20
40249;DHT22;25969;49.970;11.062;2023-07-30T17:41:30;20.90;57.10
40249;DHT22;25969;49.970;11.062;2023-07-30T17:51:31;21.00;57.30
40249;DHT22;25969;49.970;11.062;2023-07-30T18:01:36;20.30;60.40
40249;DHT22;25969;49.970;11.062;2023-07-30T18:11:37;19.90;61.60
40249;DHT22;25969;49.970;11.062;2023-07-30T18:21:38;19.60;61.80
40249;DHT22;25969;49.970;11.062;2023-07-30T18:31:39;19.30;64.30
40249;DHT22;25969;49.970;11.062;2023-07-30T18:41:39;18.60;67.30
40249;DHT22;25969;49.970;11.062;2023-07-30T18:51:40;18.10;69.40
40249;DHT22;25969;49.970;11.062;2023-07-30T19:01:41;17.40;74.70
40249;DHT22;25969;49.970;11.062;2023-07-30T19:11:42;17.00;75.00
40249;DHT22;25969;49.970;11.062;2023-07-30T19:21:43;16.60;76.30
40249;DHT22;25969;49.970;11.062;2023-07-30T19:31:44;16.30;77.10
40249;DHT22;25969;49.970;11.062;2023-07-30T19:41:44;16.20;78.30
40249;DHT22;25969;49.970;11.062;2023-07-30T19:51:45;16.10;80.40
40249;DHT22;25969;49.970;11.062;2023-07-30T20:01:46;16.10;79.70
40249;DHT22;25969;49.970;11.062;2023-07-30T20:12:11;16.30;78.80
40249;DHT22;25969;49.970;11.062;2023-07-30T20:22:21;16.50;79.30
40249;DHT22;25969;49.970;11.062;2023-07-30T20:32:22;16.30;78.70
40249;DHT22;25969;49.970;11.062;2023-07-30T20:42:24;15.90;81.70
40249;DHT22;25969;49.970;11.062;2023-07-30T20:52:25;15.90;83.10
40249;DHT22;25969;49.970;11.062;2023-07-30T21:02:26;16.00;81.90
40249;DHT22;25969;49.970;11.062;2023-07-30T21:12:27;16.00;82.80
40249;DHT22;25969;49.970;11.062;2023-07-30T21:22:27;15.70;85.80
40249;DHT22;25969;49.970;11.062;2023-07-30T21:32:28;15.60;85.30
40249;DHT22;25969;49.970;11.062;2023-07-30T21:42:30;15.60;84.60
40249;DHT22;25969;49.970;11.062;2023-07-30T21:52:31;15.60;84.60
